createdAt,value
2018-05-15T00:00:00.560Z,14.17
2018-05-15T00:01:00.551Z,14.15
2018-05-15T00:02:00.543Z,14.14
2018-05-15T00:03:00.518Z,14.14
2018-05-15T00:04:00.503Z,14.04
2018-05-15T00:05:00.492Z,14.04
2018-05-15T00:06:00.473Z,14.06
2018-05-15T00:07:00.460Z,14.10
2018-05-15T00:08:00.446Z,14.12
2018-05-15T00:09:00.445Z,14.04
2018-05-15T00:10:00.422Z,14.03
2018-05-15T00:11:00.454Z,13.97
2018-05-15T00:12:00.391Z,13.99
2018-05-15T00:13:00.375Z,13.84
2018-05-15T00:14:00.410Z,13.88
2018-05-15T00:15:00.345Z,13.85
2018-05-15T00:16:00.331Z,13.87
2018-05-15T00:17:00.317Z,13.79
2018-05-15T00:18:00.301Z,13.78
2018-05-15T00:19:00.292Z,13.88
2018-05-15T00:20:00.281Z,13.84
2018-05-15T00:21:00.258Z,13.88
2018-05-15T00:22:00.244Z,13.88
2018-05-15T00:23:00.228Z,13.85
2018-05-15T00:24:00.217Z,13.81
2018-05-15T00:25:00.202Z,13.82
2018-05-15T00:26:00.185Z,13.91
2018-05-15T00:27:00.176Z,13.84
2018-05-15T00:28:00.156Z,13.87
2018-05-15T00:29:00.140Z,13.85
2018-05-15T00:30:00.127Z,13.79
2018-05-15T00:31:00.181Z,13.88
2018-05-15T00:32:00.102Z,13.81
2018-05-15T00:33:00.088Z,13.81
2018-05-15T00:34:00.067Z,13.78
2018-05-15T00:35:00.055Z,13.79
2018-05-15T00:36:00.038Z,13.82
2018-05-15T00:37:00.025Z,13.84
2018-05-15T00:38:00.012Z,13.95
2018-05-15T00:38:59.995Z,13.85
2018-05-15T00:39:59.981Z,13.89
2018-05-15T00:40:59.966Z,13.85
2018-05-15T00:42:00.022Z,13.85
2018-05-15T00:42:59.937Z,13.82
2018-05-15T00:43:59.923Z,13.87
2018-05-15T00:44:59.906Z,13.88
2018-05-15T00:45:59.896Z,13.85
2018-05-15T00:46:59.877Z,13.84
2018-05-15T00:47:59.862Z,13.87
2018-05-15T00:48:59.849Z,13.91
2018-05-15T00:49:59.833Z,14.02
2018-05-15T00:50:59.824Z,14.02
2018-05-15T00:51:59.803Z,14.03
2018-05-15T00:52:59.787Z,13.89
2018-05-15T00:53:59.781Z,13.89
2018-05-15T00:54:59.759Z,13.82
2018-05-15T00:55:59.749Z,13.85
2018-05-15T00:56:59.732Z,13.88
2018-05-15T00:57:59.712Z,13.89
2018-05-15T00:58:59.701Z,13.89
2018-05-15T00:59:59.688Z,13.78
2018-05-15T01:00:59.668Z,13.87
2018-05-15T01:01:59.654Z,13.96
2018-05-15T01:02:59.641Z,14.02
2018-05-15T01:03:59.630Z,13.96
2018-05-15T01:04:59.611Z,14.00
2018-05-15T01:05:59.594Z,14.02
2018-05-15T01:06:59.582Z,13.87
2018-05-15T01:07:59.568Z,13.91
2018-05-15T01:08:59.550Z,13.85
2018-05-15T01:09:59.534Z,13.82
2018-05-15T01:10:59.520Z,13.81
2018-05-15T01:11:59.509Z,13.77
2018-05-15T01:12:59.491Z,13.79
2018-05-15T01:13:59.476Z,13.75
2018-05-15T01:14:59.462Z,13.71
2018-05-15T01:15:59.448Z,13.77
2018-05-15T01:16:59.440Z,13.75
2018-05-15T01:17:59.418Z,13.71
2018-05-15T01:18:59.401Z,13.77
2018-05-15T01:19:59.390Z,13.71
2018-05-15T01:20:59.374Z,13.70
2018-05-15T01:21:59.359Z,13.63
2018-05-15T01:22:59.344Z,13.57
2018-05-15T01:23:59.331Z,13.51
2018-05-15T01:24:59.313Z,13.46
2018-05-15T01:25:59.301Z,13.54
2018-05-15T01:26:59.287Z,13.54
2018-05-15T01:27:59.269Z,13.49
2018-05-15T01:28:59.253Z,13.49
2018-05-15T01:29:59.237Z,13.41
2018-05-15T01:30:59.231Z,13.46
2018-05-15T01:31:59.210Z,13.45
2018-05-15T01:32:59.195Z,13.29
2018-05-15T01:33:59.177Z,13.30
2018-05-15T01:34:59.164Z,13.28
2018-05-15T01:35:59.148Z,13.30
2018-05-15T01:36:59.134Z,13.28
2018-05-15T01:37:59.119Z,13.33
2018-05-15T01:38:59.104Z,13.32
2018-05-15T01:39:59.090Z,13.26
2018-05-15T01:40:59.075Z,13.30
2018-05-15T01:41:59.065Z,13.29
2018-05-15T01:42:59.046Z,13.46
2018-05-15T01:43:59.030Z,13.44
2018-05-15T01:44:59.015Z,13.44
2018-05-15T01:45:58.999Z,13.45
2018-05-15T01:46:58.990Z,13.41
2018-05-15T01:47:58.976Z,13.38
2018-05-15T01:48:58.991Z,13.39
2018-05-15T01:49:58.938Z,13.39
2018-05-15T01:50:58.924Z,13.41
2018-05-15T01:51:58.909Z,13.39
2018-05-15T01:52:58.898Z,13.45
2018-05-15T01:53:58.879Z,13.42
2018-05-15T01:54:58.866Z,13.29
2018-05-15T01:55:58.848Z,13.25
2018-05-15T01:56:58.834Z,13.25
2018-05-15T01:57:58.818Z,13.25
2018-05-15T01:58:58.803Z,13.20
2018-05-15T01:59:58.840Z,13.26
2018-05-15T02:00:58.773Z,13.20
2018-05-15T02:01:58.758Z,13.19
2018-05-15T02:02:58.742Z,13.15
2018-05-15T02:03:58.731Z,13.17
2018-05-15T02:04:58.712Z,13.11
2018-05-15T02:05:58.697Z,13.15
2018-05-15T02:06:58.682Z,13.12
2018-05-15T02:07:58.670Z,13.12
2018-05-15T02:08:58.653Z,13.14
2018-05-15T02:09:58.636Z,13.12
2018-05-15T02:10:58.619Z,13.08
2018-05-15T02:11:58.615Z,13.10
2018-05-15T02:12:58.593Z,13.08
2018-05-15T02:13:58.575Z,13.12
2018-05-15T02:14:58.562Z,13.10
2018-05-15T02:15:58.545Z,13.14
2018-05-15T02:16:58.530Z,13.12
2018-05-15T02:17:58.515Z,13.07
2018-05-15T02:18:58.500Z,13.10
2018-05-15T02:19:58.484Z,13.08
2018-05-15T02:20:58.468Z,13.01
2018-05-15T02:21:58.454Z,13.04
2018-05-15T02:22:58.438Z,12.92
2018-05-15T02:23:58.421Z,12.92
2018-05-15T02:24:58.408Z,13.00
2018-05-15T02:25:58.393Z,13.00
2018-05-15T02:26:58.377Z,13.08
2018-05-15T02:27:58.362Z,13.10
2018-05-15T02:28:58.347Z,13.10
2018-05-15T02:29:58.333Z,13.07
2018-05-15T02:30:58.316Z,13.12
2018-05-15T02:31:58.301Z,13.11
2018-05-15T02:32:58.288Z,13.19
2018-05-15T02:33:58.271Z,13.12
2018-05-15T02:34:58.254Z,13.08
2018-05-15T02:35:58.240Z,13.12
2018-05-15T02:36:58.224Z,13.22
2018-05-15T02:37:58.207Z,13.17
2018-05-15T02:38:58.194Z,13.14
2018-05-15T02:39:58.177Z,13.22
2018-05-15T02:40:58.165Z,13.20
2018-05-15T02:41:58.147Z,13.29
2018-05-15T02:42:58.131Z,13.19
2018-05-15T02:43:58.122Z,13.22
2018-05-15T02:44:58.103Z,13.22
2018-05-15T02:45:58.085Z,13.25
2018-05-15T02:46:58.070Z,13.19
2018-05-15T02:47:58.063Z,13.23
2018-05-15T02:48:58.040Z,13.14
2018-05-15T02:49:58.025Z,13.17
2018-05-15T02:50:58.009Z,13.12
2018-05-15T02:51:57.995Z,13.17
2018-05-15T02:52:57.979Z,13.11
2018-05-15T02:53:57.963Z,13.01
2018-05-15T02:54:57.946Z,13.00
2018-05-15T02:55:57.936Z,13.00
2018-05-15T02:56:57.918Z,13.01
2018-05-15T02:57:57.902Z,12.95
2018-05-15T02:58:57.887Z,12.90
2018-05-15T02:59:57.872Z,12.86
2018-05-15T03:00:57.856Z,12.83
2018-05-15T03:01:57.839Z,12.71
2018-05-15T03:02:57.824Z,12.75
2018-05-15T03:03:57.822Z,12.67
2018-05-15T03:04:57.801Z,12.70
2018-05-15T03:05:57.784Z,12.62
2018-05-15T03:06:57.770Z,12.59
2018-05-15T03:07:57.747Z,12.50
2018-05-15T03:08:57.738Z,12.49
2018-05-15T03:09:57.715Z,12.42
2018-05-15T03:10:57.703Z,12.41
2018-05-15T03:11:57.688Z,12.38
2018-05-15T03:12:57.669Z,12.35
2018-05-15T03:13:57.654Z,12.35
2018-05-15T03:14:57.641Z,12.39
2018-05-15T03:15:57.624Z,12.37
2018-05-15T03:16:57.630Z,12.38
2018-05-15T03:17:57.593Z,12.37
2018-05-15T03:18:57.581Z,12.35
2018-05-15T03:19:57.561Z,12.35
2018-05-15T03:20:57.546Z,12.45
2018-05-15T03:21:57.536Z,12.50
2018-05-15T03:22:57.517Z,12.47
2018-05-15T03:23:57.499Z,12.64
2018-05-15T03:24:57.486Z,12.60
2018-05-15T03:25:57.469Z,12.57
2018-05-15T03:26:57.453Z,12.57
2018-05-15T03:27:57.437Z,12.59
2018-05-15T03:28:57.421Z,12.62
2018-05-15T03:29:57.405Z,12.62
2018-05-15T03:30:57.387Z,12.64
2018-05-15T03:31:57.375Z,12.68
2018-05-15T03:32:57.359Z,12.70
2018-05-15T03:33:57.342Z,12.60
2018-05-15T03:34:57.329Z,12.65
2018-05-15T03:35:57.311Z,12.59
2018-05-15T03:36:57.296Z,12.60
2018-05-15T03:37:57.278Z,12.52
2018-05-15T03:38:57.264Z,12.49
2018-05-15T03:39:57.248Z,12.56
2018-05-15T03:40:57.233Z,12.54
2018-05-15T03:41:57.215Z,12.45
2018-05-15T03:42:57.201Z,12.46
2018-05-15T03:43:57.186Z,12.42
2018-05-15T03:44:57.171Z,12.35
2018-05-15T03:45:57.155Z,12.41
2018-05-15T03:46:57.145Z,12.37
2018-05-15T03:47:57.121Z,12.42
2018-05-15T03:48:57.109Z,12.45
2018-05-15T03:49:57.093Z,12.50
2018-05-15T03:50:57.072Z,12.47
2018-05-15T03:51:57.057Z,12.52
2018-05-15T03:53:20.867Z,12.56
2018-05-15T03:54:20.841Z,12.50
2018-05-15T03:55:20.829Z,12.49
2018-05-15T03:56:20.812Z,12.60
2018-05-15T03:57:20.799Z,12.62
2018-05-15T03:58:20.777Z,12.62
2018-05-15T03:59:20.764Z,12.62
2018-05-15T04:00:20.746Z,12.65
2018-05-15T04:01:20.735Z,12.64
2018-05-15T04:02:20.747Z,12.64
2018-05-15T04:03:20.700Z,12.68
2018-05-15T04:04:20.683Z,12.62
2018-05-15T04:05:20.670Z,12.72
2018-05-15T04:06:20.657Z,12.72
2018-05-15T04:07:20.636Z,12.74
2018-05-15T04:08:20.620Z,12.68
2018-05-15T04:09:20.605Z,12.68
2018-05-15T04:10:20.588Z,12.72
2018-05-15T04:11:20.577Z,12.72
2018-05-15T04:12:20.559Z,12.85
2018-05-15T04:13:20.546Z,12.85
2018-05-15T04:14:20.527Z,12.70
2018-05-15T04:15:20.511Z,12.79
2018-05-15T04:16:20.493Z,12.89
2018-05-15T04:17:20.487Z,12.89
2018-05-15T04:18:20.464Z,12.89
2018-05-15T04:19:20.450Z,12.87
2018-05-15T04:20:20.432Z,12.95
2018-05-15T04:21:20.416Z,12.97
2018-05-15T04:22:20.402Z,12.93
2018-05-15T04:23:20.385Z,13.07
2018-05-15T04:24:20.368Z,13.10
2018-05-15T04:25:20.354Z,13.11
2018-05-15T04:26:20.340Z,13.14
2018-05-15T04:27:20.321Z,13.11
2018-05-15T04:28:20.359Z,13.11
2018-05-15T04:29:20.290Z,13.12
2018-05-15T04:30:20.273Z,13.20
2018-05-15T04:31:20.265Z,13.12
2018-05-15T04:32:20.244Z,13.17
2018-05-15T04:33:20.228Z,13.15
2018-05-15T04:34:20.214Z,13.20
2018-05-15T04:35:20.298Z,13.17
2018-05-15T04:36:20.182Z,13.17
2018-05-15T04:37:20.166Z,13.22
2018-05-15T04:38:20.150Z,13.15
2018-05-15T04:39:20.137Z,13.19
2018-05-15T04:40:20.120Z,13.26
2018-05-15T04:41:20.113Z,13.19
2018-05-15T04:42:20.088Z,13.28
2018-05-15T04:43:20.083Z,13.42
2018-05-15T04:44:20.057Z,13.45
2018-05-15T04:45:20.041Z,13.41
2018-05-15T04:46:20.025Z,13.38
2018-05-15T04:47:20.013Z,13.41
2018-05-15T04:48:19.993Z,13.45
2018-05-15T04:49:20.011Z,13.44
2018-05-15T04:50:19.965Z,13.55
2018-05-15T04:51:19.948Z,13.63
2018-05-15T04:52:19.933Z,13.63
2018-05-15T04:53:19.924Z,13.60
2018-05-15T04:54:19.901Z,13.60
2018-05-15T04:55:19.892Z,13.63
2018-05-15T04:56:19.875Z,13.70
2018-05-15T04:57:19.871Z,13.70
2018-05-15T04:58:19.841Z,13.67
2018-05-15T04:59:19.825Z,13.73
2018-05-15T05:00:19.811Z,13.75
2018-05-15T05:01:19.795Z,13.77
2018-05-15T05:02:19.779Z,13.78
2018-05-15T05:03:19.771Z,13.79
2018-05-15T05:04:19.748Z,13.88
2018-05-15T05:05:19.733Z,13.84
2018-05-15T05:06:19.723Z,13.78
2018-05-15T05:07:19.707Z,13.88
2018-05-15T05:08:19.691Z,13.89
2018-05-15T05:09:19.671Z,13.89
2018-05-15T05:10:19.656Z,13.96
2018-05-15T05:11:19.643Z,14.02
2018-05-15T05:12:19.626Z,14.04
2018-05-15T05:13:19.613Z,14.04
2018-05-15T05:14:19.597Z,14.06
2018-05-15T05:15:19.582Z,14.17
2018-05-15T05:16:19.566Z,14.14
2018-05-15T05:17:19.550Z,14.27
2018-05-15T05:18:19.535Z,14.25
2018-05-15T05:19:19.525Z,14.36
2018-05-15T05:20:19.507Z,14.33
2018-05-15T05:21:19.489Z,14.40
2018-05-15T05:22:19.475Z,14.40
2018-05-15T05:23:19.466Z,14.51
2018-05-15T05:24:19.447Z,14.45
2018-05-15T05:25:19.429Z,14.42
2018-05-15T05:26:19.415Z,14.52
2018-05-15T05:27:19.408Z,14.69
2018-05-15T05:28:19.384Z,14.65
2018-05-15T05:29:19.375Z,14.70
2018-05-15T05:30:19.360Z,14.83
2018-05-15T05:31:19.342Z,14.77
2018-05-15T05:32:19.330Z,14.84
2018-05-15T05:33:19.394Z,14.86
2018-05-15T05:34:19.296Z,14.92
2018-05-15T05:35:19.281Z,14.89
2018-05-15T05:36:19.266Z,14.96
2018-05-15T05:37:19.252Z,14.99
2018-05-15T05:38:19.239Z,15.13
2018-05-15T05:39:19.226Z,15.13
2018-05-15T05:40:19.208Z,15.17
2018-05-15T05:41:19.197Z,15.16
2018-05-15T05:42:19.180Z,15.19
2018-05-15T05:43:19.183Z,15.27
2018-05-15T05:44:19.152Z,15.31
2018-05-15T05:45:19.140Z,15.23
2018-05-15T05:46:19.127Z,15.35
2018-05-15T05:47:19.109Z,15.49
2018-05-15T05:48:19.092Z,15.46
2018-05-15T05:49:19.079Z,15.51
2018-05-15T05:50:19.070Z,15.53
2018-05-15T05:51:19.056Z,15.54
2018-05-15T05:52:19.034Z,15.60
2018-05-15T05:53:19.022Z,15.57
2018-05-15T05:54:19.009Z,15.68
2018-05-15T05:55:19.002Z,15.69
2018-05-15T05:56:18.978Z,15.74
2018-05-15T05:57:18.964Z,15.90
2018-05-15T05:58:18.959Z,15.90
2018-05-15T05:59:18.939Z,16.00
2018-05-15T06:00:18.922Z,15.94
2018-05-15T06:01:18.908Z,16.00
2018-05-15T06:02:18.894Z,15.93
2018-05-15T06:03:18.881Z,16.12
2018-05-15T06:04:18.868Z,16.09
2018-05-15T06:05:18.852Z,16.24
2018-05-15T06:06:18.841Z,16.20
2018-05-15T06:07:18.833Z,16.31
2018-05-15T06:08:18.814Z,16.31
2018-05-15T06:09:18.795Z,16.27
2018-05-15T06:10:18.785Z,16.35
2018-05-15T06:11:18.771Z,16.45
2018-05-15T06:12:18.764Z,16.43
2018-05-15T06:13:18.740Z,16.48
2018-05-15T06:14:18.768Z,16.49
2018-05-15T06:15:18.718Z,16.58
2018-05-15T06:16:18.698Z,16.66
2018-05-15T06:17:18.694Z,16.64
2018-05-15T06:18:18.674Z,16.75
2018-05-15T06:19:18.665Z,16.79
2018-05-15T06:20:18.645Z,16.86
2018-05-15T06:21:18.631Z,16.89
2018-05-15T06:22:18.620Z,17.00
2018-05-15T06:23:18.606Z,17.08
2018-05-15T06:24:18.595Z,17.06
2018-05-15T06:25:18.579Z,17.18
2018-05-15T06:26:18.566Z,17.23
2018-05-15T06:27:18.552Z,17.38
2018-05-15T06:28:18.561Z,17.41
2018-05-15T06:29:18.527Z,17.56
2018-05-15T06:30:18.528Z,17.64
2018-05-15T06:31:18.590Z,17.56
2018-05-15T06:32:18.503Z,17.78
2018-05-15T06:33:18.475Z,17.84
2018-05-15T06:34:18.461Z,17.84
2018-05-15T06:35:18.452Z,17.86
2018-05-15T06:36:18.437Z,18.00
2018-05-15T06:37:18.423Z,18.08
2018-05-15T06:38:18.419Z,18.03
2018-05-15T06:39:18.400Z,18.10
2018-05-15T06:40:18.386Z,18.12
2018-05-15T06:41:18.377Z,18.25
2018-05-15T06:42:18.365Z,18.26
2018-05-15T06:43:18.353Z,18.41
2018-05-15T06:44:18.336Z,18.44
2018-05-15T06:45:18.329Z,18.50
2018-05-15T06:46:18.312Z,18.54
2018-05-15T06:47:18.302Z,18.70
2018-05-15T06:48:18.287Z,18.70
2018-05-15T06:49:18.276Z,18.88
2018-05-15T06:50:18.265Z,18.92
2018-05-15T06:51:18.253Z,18.91
2018-05-15T06:52:18.240Z,19.02
2018-05-15T06:53:18.231Z,19.13
2018-05-15T06:54:18.219Z,19.13
2018-05-15T06:55:18.204Z,19.26
2018-05-15T06:56:18.195Z,19.29
2018-05-15T06:57:18.183Z,19.39
2018-05-15T06:58:18.175Z,19.56
2018-05-15T06:59:18.159Z,19.55
2018-05-15T07:00:18.145Z,19.65
2018-05-15T07:01:18.135Z,19.71
2018-05-15T07:02:18.123Z,19.73
2018-05-15T07:03:18.111Z,19.83
2018-05-15T07:04:18.100Z,19.96
2018-05-15T07:05:18.090Z,19.91
2018-05-15T07:06:18.079Z,19.99
2018-05-15T07:07:18.077Z,20.01
2018-05-15T07:08:18.056Z,20.03
2018-05-15T07:09:18.045Z,20.10
2018-05-15T07:10:18.034Z,20.08
2018-05-15T07:11:18.027Z,20.10
2018-05-15T07:12:18.014Z,20.08
2018-05-15T07:13:18.001Z,20.20
2018-05-15T07:14:17.991Z,20.23
2018-05-15T07:15:17.986Z,20.32
2018-05-15T07:16:17.971Z,20.33
2018-05-15T07:17:17.959Z,20.50
2018-05-15T07:18:17.948Z,20.62
2018-05-15T07:19:17.940Z,20.66
2018-05-15T07:20:17.926Z,20.79
2018-05-15T07:21:17.916Z,20.97
2018-05-15T07:22:17.907Z,20.98
2018-05-15T07:23:17.896Z,21.01
2018-05-15T07:24:17.885Z,21.07
2018-05-15T07:25:17.874Z,21.13
2018-05-15T07:26:17.865Z,21.25
2018-05-15T07:27:17.872Z,21.28
2018-05-15T07:28:17.844Z,21.32
2018-05-15T07:29:17.836Z,21.34
2018-05-15T07:30:17.827Z,21.46
2018-05-15T07:31:17.816Z,21.62
2018-05-15T07:32:17.805Z,21.64
2018-05-15T07:33:17.795Z,21.69
2018-05-15T07:34:17.789Z,21.84
2018-05-15T07:35:17.776Z,22.14
2018-05-15T07:36:17.768Z,22.30
2018-05-15T07:37:17.757Z,22.31
2018-05-15T07:38:17.747Z,22.60
2018-05-15T07:39:17.745Z,22.91
2018-05-15T07:40:17.733Z,23.09
2018-05-15T07:41:17.720Z,23.35
2018-05-15T07:42:17.711Z,23.38
2018-05-15T07:43:17.703Z,23.73
2018-05-15T07:44:17.693Z,23.85
2018-05-15T07:45:17.684Z,24.10
2018-05-15T07:46:17.675Z,24.18
2018-05-15T07:47:17.672Z,24.43
2018-05-15T07:48:17.766Z,24.80
2018-05-15T07:49:17.651Z,25.10
2018-05-15T07:50:17.642Z,25.54
2018-05-15T07:51:17.634Z,25.88
2018-05-15T07:52:17.628Z,26.18
2018-05-15T07:53:17.622Z,26.45
2018-05-15T07:54:17.617Z,26.89
2018-05-15T07:55:17.607Z,27.13
2018-05-15T07:56:17.600Z,27.40
2018-05-15T07:57:17.596Z,27.79
2018-05-15T07:58:17.590Z,28.07
2018-05-15T07:59:17.588Z,28.33
2018-05-15T08:00:17.581Z,28.48
2018-05-15T08:01:17.578Z,28.70
2018-05-15T08:02:17.574Z,28.90
2018-05-15T08:03:17.571Z,29.14
2018-05-15T08:04:17.618Z,29.46
2018-05-15T08:05:17.571Z,29.78
2018-05-15T08:06:17.563Z,30.08
2018-05-15T08:07:17.560Z,30.24
2018-05-15T08:08:17.558Z,30.37
2018-05-15T08:09:17.551Z,30.73
2018-05-15T08:10:17.551Z,30.88
2018-05-15T08:11:17.552Z,31.10
2018-05-15T08:12:17.544Z,31.01
2018-05-15T08:13:17.548Z,31.09
2018-05-15T08:14:17.544Z,31.09
2018-05-15T08:15:17.541Z,30.92
2018-05-15T08:16:17.632Z,30.75
2018-05-15T08:17:17.539Z,30.76
2018-05-15T08:18:17.537Z,30.99
2018-05-15T08:19:17.543Z,31.07
2018-05-15T08:20:17.533Z,31.26
2018-05-15T08:21:17.538Z,31.21
2018-05-15T08:22:17.659Z,31.39
2018-05-15T08:23:17.533Z,31.48
2018-05-15T08:24:17.536Z,31.58
2018-05-15T08:25:17.532Z,31.85
2018-05-15T08:26:17.531Z,32.28
2018-05-15T08:27:17.531Z,32.57
2018-05-15T08:28:17.532Z,32.57
2018-05-15T08:29:17.531Z,32.47
2018-05-15T08:30:17.531Z,32.40
2018-05-15T08:31:17.530Z,32.32
2018-05-15T08:32:17.531Z,32.22
2018-05-15T08:33:17.531Z,32.35
2018-05-15T08:34:17.532Z,32.45
2018-05-15T08:35:17.543Z,32.72
2018-05-15T08:36:17.531Z,32.81
2018-05-15T08:37:17.545Z,32.72
2018-05-15T08:38:17.533Z,32.72
2018-05-15T08:39:17.533Z,32.89
2018-05-15T08:40:17.548Z,33.22
2018-05-15T08:41:17.535Z,33.45
2018-05-15T08:42:17.544Z,33.72
2018-05-15T08:43:17.546Z,33.87
2018-05-15T08:44:17.541Z,34.21
2018-05-15T08:45:17.611Z,34.47
2018-05-15T08:46:17.547Z,34.96
2018-05-15T08:47:17.543Z,34.70
2018-05-15T08:48:17.541Z,34.85
2018-05-15T08:49:17.543Z,34.84
2018-05-15T08:50:17.543Z,34.87
2018-05-15T08:51:17.542Z,34.81
2018-05-15T08:52:17.545Z,34.96
2018-05-15T08:53:17.548Z,34.92
2018-05-15T08:54:17.547Z,34.81
2018-05-15T08:55:17.550Z,34.94
2018-05-15T08:56:17.550Z,35.18
2018-05-15T08:57:17.552Z,35.28
2018-05-15T08:58:17.554Z,35.21
2018-05-15T08:59:17.555Z,35.04
2018-05-15T09:00:17.556Z,34.59
2018-05-15T09:01:17.563Z,34.49
2018-05-15T09:02:17.560Z,34.69
2018-05-15T09:03:17.562Z,34.73
2018-05-15T09:04:17.565Z,34.97
2018-05-15T09:05:17.568Z,35.21
2018-05-15T09:06:17.568Z,35.44
2018-05-15T09:07:17.570Z,35.52
2018-05-15T09:08:17.573Z,35.74
2018-05-15T09:09:17.570Z,35.66
2018-05-15T09:10:17.573Z,35.63
2018-05-15T09:11:17.580Z,35.85
2018-05-15T09:12:17.577Z,36.05
2018-05-15T09:13:17.580Z,36.07
2018-05-15T09:14:17.582Z,36.05
2018-05-15T09:15:17.584Z,36.20
2018-05-15T09:16:17.586Z,36.53
2018-05-15T09:17:17.589Z,36.59
2018-05-15T09:18:17.597Z,36.44
2018-05-15T09:19:17.660Z,36.49
2018-05-15T09:20:17.596Z,36.54
2018-05-15T09:21:17.606Z,36.47
2018-05-15T09:22:17.604Z,36.31
2018-05-15T09:23:17.604Z,35.71
2018-05-15T09:24:17.614Z,35.71
2018-05-15T09:25:17.611Z,35.56
2018-05-15T09:26:17.613Z,35.81
2018-05-15T09:27:17.614Z,35.93
2018-05-15T09:28:17.616Z,35.94
2018-05-15T09:29:17.643Z,36.07
2018-05-15T09:30:17.625Z,36.05
2018-05-15T09:31:17.627Z,35.96
2018-05-15T09:32:17.631Z,36.22
2018-05-15T09:33:17.635Z,36.35
2018-05-15T09:34:17.637Z,36.65
2018-05-15T09:35:17.645Z,36.47
2018-05-15T09:36:17.645Z,36.25
2018-05-15T09:37:17.648Z,35.87
2018-05-15T09:38:17.652Z,35.75
2018-05-15T09:39:17.654Z,35.66
2018-05-15T09:40:17.657Z,35.19
2018-05-15T09:41:17.663Z,34.70
2018-05-15T09:42:17.667Z,34.32
2018-05-15T09:43:17.671Z,33.91
2018-05-15T09:44:17.670Z,33.63
2018-05-15T09:45:17.673Z,33.07
2018-05-15T09:46:17.678Z,32.97
2018-05-15T09:47:17.680Z,32.87
2018-05-15T09:48:17.681Z,32.82
2018-05-15T09:49:17.684Z,32.66
2018-05-15T09:50:17.686Z,32.51
2018-05-15T09:51:17.687Z,32.38
2018-05-15T09:52:17.769Z,32.47
2018-05-15T09:53:17.694Z,32.75
2018-05-15T09:54:17.694Z,32.65
2018-05-15T09:55:17.699Z,32.70
2018-05-15T09:56:17.700Z,32.69
2018-05-15T09:57:17.701Z,32.48
2018-05-15T09:58:17.704Z,32.48
2018-05-15T09:59:17.706Z,32.32
2018-05-15T10:00:17.707Z,32.01
2018-05-15T10:01:17.709Z,31.95
2018-05-15T10:02:17.714Z,31.85
2018-05-15T10:03:17.711Z,31.66
2018-05-15T10:04:17.714Z,31.84
2018-05-15T10:05:17.715Z,32.22
2018-05-15T10:06:17.717Z,32.38
2018-05-15T10:07:17.719Z,32.40
2018-05-15T10:08:17.729Z,32.30
2018-05-15T10:09:17.721Z,32.11
2018-05-15T10:10:17.724Z,31.78
2018-05-15T10:11:17.724Z,31.48
2018-05-15T10:12:17.724Z,31.28
2018-05-15T10:13:17.725Z,31.19
2018-05-15T10:14:17.776Z,31.07
2018-05-15T10:15:17.732Z,31.06
2018-05-15T10:16:17.729Z,30.82
2018-05-15T10:17:17.731Z,30.27
2018-05-15T10:18:17.732Z,29.85
2018-05-15T10:19:17.732Z,29.42
2018-05-15T10:20:17.732Z,29.46
2018-05-15T10:21:17.732Z,29.06
2018-05-15T10:22:17.735Z,29.02
2018-05-15T10:23:17.734Z,28.74
2018-05-15T10:24:17.734Z,28.73
2018-05-15T10:25:17.736Z,28.74
2018-05-15T10:26:17.736Z,28.77
2018-05-15T10:27:17.737Z,29.00
2018-05-15T10:28:17.746Z,29.31
2018-05-15T10:29:17.735Z,29.48
2018-05-15T10:30:17.735Z,29.67
2018-05-15T10:31:17.734Z,29.71
2018-05-15T10:32:17.802Z,29.82
2018-05-15T10:33:17.735Z,30.00
2018-05-15T10:34:17.734Z,29.92
2018-05-15T10:35:17.733Z,29.87
2018-05-15T10:36:17.733Z,30.02
2018-05-15T10:37:17.787Z,30.35
2018-05-15T10:38:17.735Z,30.70
2018-05-15T10:39:17.740Z,30.86
2018-05-15T10:40:17.733Z,30.97
2018-05-15T10:41:17.732Z,30.92
2018-05-15T10:42:17.733Z,30.97
2018-05-15T10:43:17.732Z,31.06
2018-05-15T10:44:17.729Z,31.23
2018-05-15T10:45:17.732Z,31.21
2018-05-15T10:46:17.732Z,31.17
2018-05-15T10:47:17.729Z,31.09
2018-05-15T10:48:17.733Z,30.99
2018-05-15T10:49:17.732Z,30.80
2018-05-15T10:50:17.731Z,30.86
2018-05-15T10:51:17.731Z,30.82
2018-05-15T10:52:17.737Z,30.54
2018-05-15T10:53:17.733Z,30.29
2018-05-15T10:54:17.730Z,30.05
2018-05-15T10:55:17.733Z,29.89
2018-05-15T10:56:17.730Z,29.87
2018-05-15T10:57:17.733Z,29.76
2018-05-15T10:58:17.729Z,29.76
2018-05-15T10:59:17.729Z,29.76
2018-05-15T11:00:17.730Z,29.79
2018-05-15T11:01:17.734Z,29.64
2018-05-15T11:02:17.732Z,29.86
2018-05-15T11:03:17.728Z,29.90
2018-05-15T11:04:17.728Z,29.87
2018-05-15T11:05:17.729Z,29.74
2018-05-15T11:06:17.782Z,29.51
2018-05-15T11:07:17.728Z,29.52
2018-05-15T11:08:17.725Z,29.24
2018-05-15T11:09:17.728Z,29.06
2018-05-15T11:10:17.725Z,28.93
2018-05-15T11:11:17.727Z,28.86
2018-05-15T11:12:17.725Z,28.80
2018-05-15T11:13:18.046Z,28.71
2018-05-15T11:14:17.725Z,28.67
2018-05-15T11:15:17.724Z,28.67
2018-05-15T11:16:17.721Z,28.74
2018-05-15T11:17:17.719Z,28.56
2018-05-15T11:18:17.720Z,28.36
2018-05-15T11:19:17.722Z,28.24
2018-05-15T11:20:17.716Z,28.24
2018-05-15T11:21:17.717Z,27.99
2018-05-15T11:22:17.716Z,27.99
2018-05-15T11:23:17.715Z,28.07
2018-05-15T11:24:17.711Z,28.25
2018-05-15T11:25:17.711Z,28.30
2018-05-15T11:26:17.710Z,28.19
2018-05-15T11:27:17.711Z,28.36
2018-05-15T11:28:17.707Z,28.40
2018-05-15T11:29:17.708Z,28.49
2018-05-15T11:30:17.705Z,28.74
2018-05-15T11:31:17.705Z,28.83
2018-05-15T11:32:17.703Z,28.80
2018-05-15T11:33:17.702Z,28.93
2018-05-15T11:34:17.701Z,28.89
2018-05-15T11:35:17.702Z,28.74
2018-05-15T11:36:17.698Z,28.80
2018-05-15T11:37:17.699Z,28.86
2018-05-15T11:38:17.697Z,28.95
2018-05-15T11:39:17.693Z,28.96
2018-05-15T11:40:17.692Z,29.11
2018-05-15T11:41:17.706Z,29.06
2018-05-15T11:42:17.693Z,29.15
2018-05-15T11:43:17.689Z,29.09
2018-05-15T11:44:17.687Z,28.73
2018-05-15T11:45:17.687Z,28.52
2018-05-15T11:46:17.686Z,28.34
2018-05-15T11:47:17.728Z,28.36
2018-05-15T11:48:18.346Z,28.39
2018-05-15T11:49:18.627Z,28.33
2018-05-15T11:50:18.399Z,28.34
2018-05-15T11:51:18.315Z,28.18
2018-05-15T11:52:18.629Z,28.30
2018-05-15T11:53:18.313Z,28.22
2018-05-15T11:54:17.678Z,28.31
2018-05-15T11:55:17.676Z,28.15
2018-05-15T11:56:17.672Z,28.15
2018-05-15T11:57:17.675Z,28.15
2018-05-15T11:58:17.705Z,28.36
2018-05-15T11:59:17.675Z,28.34
2018-05-15T12:00:17.666Z,28.37
2018-05-15T12:01:17.667Z,28.39
2018-05-15T12:02:17.664Z,28.36
2018-05-15T12:03:17.664Z,28.25
2018-05-15T12:04:17.673Z,28.22
2018-05-15T12:05:17.667Z,28.29
2018-05-15T12:06:17.659Z,28.29
2018-05-15T12:07:17.659Z,28.27
2018-05-15T12:08:17.676Z,28.22
2018-05-15T12:09:17.654Z,28.18
2018-05-15T12:10:17.660Z,28.18
2018-05-15T12:11:17.653Z,28.29
2018-05-15T12:12:17.650Z,28.31
2018-05-15T12:13:17.658Z,28.33
2018-05-15T12:14:17.647Z,28.07
2018-05-15T12:15:17.647Z,28.12
2018-05-15T12:16:17.654Z,27.92
2018-05-15T12:17:17.644Z,27.59
2018-05-15T12:18:17.641Z,27.43
2018-05-15T12:19:17.644Z,27.41
2018-05-15T12:20:17.637Z,27.25
2018-05-15T12:21:17.639Z,27.09
2018-05-15T12:22:17.633Z,27.06
2018-05-15T12:23:17.635Z,27.18
2018-05-15T12:24:17.631Z,27.32
2018-05-15T12:25:17.629Z,27.36
2018-05-15T12:26:17.626Z,27.40
2018-05-15T12:27:17.626Z,27.47
2018-05-15T12:28:17.623Z,27.28
2018-05-15T12:29:17.621Z,27.41
2018-05-15T12:30:17.617Z,27.40
2018-05-15T12:31:17.625Z,27.32
2018-05-15T12:32:17.613Z,27.19
2018-05-15T12:33:17.612Z,27.14
2018-05-15T12:34:17.611Z,27.17
2018-05-15T12:35:17.609Z,27.25
2018-05-15T12:36:17.606Z,27.19
2018-05-15T12:37:17.606Z,27.17
2018-05-15T12:38:17.601Z,27.24
2018-05-15T12:39:17.599Z,27.39
2018-05-15T12:40:17.597Z,27.43
2018-05-15T12:41:17.603Z,27.40
2018-05-15T12:42:17.592Z,27.55
2018-05-15T12:43:17.590Z,27.63
2018-05-15T12:44:17.587Z,27.63
2018-05-15T12:45:17.587Z,27.55
2018-05-15T12:46:17.582Z,27.54
2018-05-15T12:47:17.578Z,27.54
2018-05-15T12:48:17.617Z,27.37
2018-05-15T12:49:17.574Z,27.40
2018-05-15T12:50:17.575Z,27.12
2018-05-15T12:51:17.569Z,27.06
2018-05-15T12:52:17.568Z,27.06